Time;durP1;ratioP1;P1;durP2;ratioP2;P2;SDS_P1;SDS_P2;PMS_P1;PMS_P2;Temp;Humidity;BMP_temperature;BMP_pressure;BME280_temperature;BME280_humidity;BME280_pressure;Samples;Min_cycle;Max_cycle;Signal;HPM_P1;HPM_P2
2022/03/05 00:02:10;;;;;;;19.67;11.40;;;;;;;;;;4997385;28;20443;-77
2022/03/05 00:04:36;;;;;;;18.90;10.43;;;;;;;;;;4997501;28;20392;-78
2022/03/05 00:07:02;;;;;;;22.07;12.90;;;;;;;;;;4996784;28;20401;-77
2022/03/05 00:09:28;;;;;;;23.13;12.97;;;;;;;;;;4997626;28;20533;-77
2022/03/05 00:11:54;;;;;;;22.63;11.20;;;;;;;;;;4996326;28;20550;-77
2022/03/05 00:14:20;;;;;;;22.80;12.47;;;;;;;;;;4996658;28;20798;-78
2022/03/05 00:16:46;;;;;;;22.40;13.20;;;;;;;;;;4996250;28;20908;-77
2022/03/05 00:19:12;;;;;;;20.50;10.87;;;;;;;;;;4994943;28;20561;-77
2022/03/05 00:21:38;;;;;;;23.50;12.03;;;;;;;;;;4996154;28;20939;-77
2022/03/05 00:24:05;;;;;;;22.37;12.13;;;;;;;;;;4996362;28;20432;-76
2022/03/05 00:26:31;;;;;;;24.70;12.63;;;;;;;;;;4996283;28;20865;-77
2022/03/05 00:28:57;;;;;;;22.47;12.17;;;;;;;;;;4995002;28;20416;-77
2022/03/05 00:31:23;;;;;;;22.57;13.10;;;;;;;;;;4994742;28;20788;-77
2022/03/05 00:33:49;;;;;;;20.37;12.13;;;;;;;;;;4995997;28;20928;-77
2022/03/05 00:36:15;;;;;;;24.30;12.60;;;;;;;;;;4995833;28;20439;-76
2022/03/05 00:38:41;;;;;;;22.30;12.57;;;;;;;;;;4995554;28;20498;-77
2022/03/05 00:41:08;;;;;;;22.23;11.70;;;;;;;;;;4995891;28;20404;-77
2022/03/05 00:43:35;;;;;;;21.70;13.17;;;;;;;;;;4995899;28;20400;-77
2022/03/05 00:46:01;;;;;;;27.10;12.77;;;;;;;;;;4995676;28;20408;-77
2022/03/05 00:48:27;;;;;;;20.53;12.47;;;;;;;;;;4995895;28;20408;-77
2022/03/05 00:50:53;;;;;;;22.47;13.00;;;;;;;;;;4995387;28;20400;-77
2022/03/05 00:53:21;;;;;;;25.10;13.20;;;;;;;;;;4995774;28;20428;-77
2022/03/05 00:55:47;;;;;;;21.77;12.27;;;;;;;;;;4995468;28;20776;-77
2022/03/05 00:58:14;;;;;;;19.97;12.43;;;;;;;;;;4995614;28;20478;-77
2022/03/05 01:00:41;;;;;;;22.77;12.60;;;;;;;;;;4995739;28;20416;-77
2022/03/05 01:03:07;;;;;;;20.77;12.87;;;;;;;;;;4994018;28;20452;-77
2022/03/05 01:05:33;;;;;;;19.23;12.03;;;;;;;;;;4997733;28;20446;-78
2022/03/05 01:07:59;;;;;;;24.67;12.73;;;;;;;;;;4995943;28;20404;-78
2022/03/05 01:10:26;;;;;;;23.53;12.57;;;;;;;;;;4996370;28;20418;-78
2022/03/05 01:12:52;;;;;;;23.23;12.63;;;;;;;;;;4996133;28;20424;-78
2022/03/05 01:15:18;;;;;;;24.27;13.37;;;;;;;;;;4996078;28;20992;-78
2022/03/05 01:17:44;;;;;;;20.43;11.77;;;;;;;;;;4996836;28;20912;-78
2022/03/05 01:20:10;;;;;;;23.67;13.70;;;;;;;;;;4996043;28;20799;-78
2022/03/05 01:22:36;;;;;;;19.10;12.30;;;;;;;;;;4996544;28;20420;-78
2022/03/05 01:25:02;;;;;;;19.93;12.23;;;;;;;;;;4996400;28;20493;-78
2022/03/05 01:27:29;;;;;;;26.10;13.53;;;;;;;;;;4996688;28;20411;-78
2022/03/05 01:29:55;;;;;;;23.67;13.27;;;;;;;;;;4996453;28;20488;-78
2022/03/05 01:32:21;;;;;;;24.00;13.30;;;;;;;;;;4995666;28;20432;-78
2022/03/05 01:34:47;;;;;;;21.27;12.73;;;;;;;;;;4995766;28;20510;-78
2022/03/05 01:37:13;;;;;;;22.10;13.57;;;;;;;;;;4995664;28;20463;-78
2022/03/05 01:39:41;;;;;;;25.03;13.37;;;;;;;;;;4995423;28;20483;-77
2022/03/05 01:42:07;;;;;;;24.97;13.73;;;;;;;;;;4996107;28;20428;-78
2022/03/05 01:44:34;;;;;;;23.07;13.97;;;;;;;;;;4996142;28;20503;-77
2022/03/05 01:47:04;;;;;;;20.83;12.97;;;;;;;;;;5005253;28;20428;-77
2022/03/05 01:49:30;;;;;;;24.33;11.87;;;;;;;;;;4995814;28;20416;-77
2022/03/05 01:51:56;;;;;;;24.53;13.43;;;;;;;;;;4995775;28;20463;-77
2022/03/05 01:54:23;;;;;;;24.40;12.77;;;;;;;;;;4996042;28;20409;-77
2022/03/05 01:56:49;;;;;;;20.90;12.87;;;;;;;;;;4996077;28;20436;-77
2022/03/05 01:59:16;;;;;;;22.77;11.60;;;;;;;;;;4995754;28;20448;-77
2022/03/05 02:01:42;;;;;;;23.87;12.50;;;;;;;;;;4993658;28;20474;-77
2022/03/05 02:04:08;;;;;;;19.33;12.50;;;;;;;;;;4994968;28;20404;-77
2022/03/05 02:06:34;;;;;;;22.07;13.90;;;;;;;;;;5002546;28;20403;-75
2022/03/05 02:09:01;;;;;;;25.73;13.93;;;;;;;;;;4997788;28;20434;-77
2022/03/05 02:11:27;;;;;;;22.47;14.20;;;;;;;;;;4995393;28;20423;-77
2022/03/05 02:13:54;;;;;;;20.53;13.20;;;;;;;;;;4995523;28;20904;-78
2022/03/05 02:16:20;;;;;;;28.87;14.73;;;;;;;;;;4994305;28;20440;-77
2022/03/05 02:18:48;;;;;;;24.23;13.37;;;;;;;;;;4995400;28;20447;-77
2022/03/05 02:21:15;;;;;;;23.93;13.60;;;;;;;;;;4995819;28;20408;-77
2022/03/05 02:23:41;;;;;;;25.93;14.00;;;;;;;;;;4995645;28;20881;-77
2022/03/05 02:26:07;;;;;;;21.63;12.53;;;;;;;;;;4995583;28;20547;-77
2022/03/05 02:28:34;;;;;;;25.10;13.50;;;;;;;;;;4995961;28;20403;-77
2022/03/05 02:31:00;;;;;;;24.27;12.40;;;;;;;;;;4996898;28;20901;-77
2022/03/05 02:33:27;;;;;;;26.87;12.83;;;;;;;;;;4995745;28;20436;-77
2022/03/05 02:35:53;;;;;;;27.10;13.33;;;;;;;;;;4995149;28;20404;-77
2022/03/05 02:38:20;;;;;;;23.90;12.37;;;;;;;;;;4995044;28;20412;-77
2022/03/05 02:40:47;;;;;;;24.97;14.10;;;;;;;;;;4994899;28;20404;-77
2022/03/05 02:43:13;;;;;;;22.00;12.83;;;;;;;;;;4995329;28;21012;-77
2022/03/05 02:45:39;;;;;;;24.87;13.63;;;;;;;;;;4995708;28;20396;-77
2022/03/05 02:48:07;;;;;;;22.03;13.00;;;;;;;;;;4994953;28;20397;-77
2022/03/05 02:50:33;;;;;;;26.67;14.40;;;;;;;;;;4997906;28;20787;-76
2022/03/05 02:52:59;;;;;;;20.20;12.73;;;;;;;;;;5012827;28;20446;-77
2022/03/05 02:55:25;;;;;;;23.30;13.50;;;;;;;;;;5014771;28;20494;-77
2022/03/05 02:57:52;;;;;;;21.77;12.97;;;;;;;;;;5014780;28;20478;-78
2022/03/05 03:00:18;;;;;;;22.00;12.93;;;;;;;;;;5012881;28;20866;-78
2022/03/05 03:02:45;;;;;;;25.80;14.63;;;;;;;;;;5014304;28;20446;-77
2022/03/05 03:05:12;;;;;;;26.20;13.43;;;;;;;;;;5014404;28;20403;-77
2022/03/05 03:07:38;;;;;;;20.73;12.60;;;;;;;;;;5013012;28;20431;-77
2022/03/05 03:10:04;;;;;;;24.67;13.83;;;;;;;;;;5014376;28;20403;-78
2022/03/05 03:12:30;;;;;;;27.00;13.27;;;;;;;;;;5013093;28;20446;-78
2022/03/05 03:14:57;;;;;;;24.87;13.13;;;;;;;;;;5014427;28;20410;-77
2022/03/05 03:17:23;;;;;;;20.77;12.67;;;;;;;;;;5014755;28;20482;-77
2022/03/05 03:19:49;;;;;;;19.07;12.83;;;;;;;;;;5014574;28;20443;-77
2022/03/05 03:22:15;;;;;;;24.77;13.27;;;;;;;;;;5013781;28;20411;-77
2022/03/05 03:24:42;;;;;;;26.80;13.73;;;;;;;;;;5015153;28;20482;-77
2022/03/05 03:27:08;;;;;;;27.63;14.17;;;;;;;;;;5024223;28;20404;-77
2022/03/05 03:29:34;;;;;;;21.90;13.77;;;;;;;;;;5014037;28;20411;-77
2022/03/05 03:32:01;;;;;;;23.63;12.80;;;;;;;;;;5017267;28;20423;-77
2022/03/05 03:34:29;;;;;;;33.53;14.77;;;;;;;;;;5022026;28;20415;-77
2022/03/05 03:36:55;;;;;;;21.10;11.37;;;;;;;;;;5018012;28;20414;-77
2022/03/05 03:39:21;;;;;;;24.37;13.33;;;;;;;;;;5017639;28;20513;-77
2022/03/05 03:41:47;;;;;;;24.40;13.53;;;;;;;;;;5017585;28;20423;-77
2022/03/05 03:44:13;;;;;;;26.20;14.07;;;;;;;;;;5018164;28;20411;-77
2022/03/05 03:46:39;;;;;;;22.27;13.23;;;;;;;;;;5018324;28;20412;-77
2022/03/05 03:49:05;;;;;;;24.23;13.80;;;;;;;;;;5021780;28;20494;-78
2022/03/05 03:51:31;;;;;;;25.20;14.97;;;;;;;;;;5017040;28;20436;-77
2022/03/05 03:53:57;;;;;;;24.90;12.90;;;;;;;;;;5016196;28;20585;-77
2022/03/05 03:56:23;;;;;;;31.13;15.33;;;;;;;;;;5016625;28;20426;-76
2022/03/05 03:58:49;;;;;;;24.43;14.27;;;;;;;;;;5016245;28;20501;-76
2022/03/05 04:01:15;;;;;;;20.70;13.27;;;;;;;;;;5015969;28;20391;-77
2022/03/05 04:03:42;;;;;;;28.60;13.40;;;;;;;;;;5015851;28;20506;-77
2022/03/05 04:06:08;;;;;;;27.70;14.00;;;;;;;;;;5016190;28;20403;-77
2022/03/05 04:08:43;;;;;;;27.70;14.20;;;;;;;;;;5016025;28;20399;-77
2022/03/05 04:11:13;;;;;;;23.67;12.53;;;;;;;;;;5014695;28;20391;-78
2022/03/05 04:13:40;;;;;;;22.57;13.00;;;;;;;;;;5014419;28;20824;-77
2022/03/05 04:16:06;;;;;;;33.63;14.97;;;;;;;;;;5015659;28;20465;-77
2022/03/05 04:18:33;;;;;;;21.77;14.23;;;;;;;;;;5015912;28;20501;-77
2022/03/05 04:21:00;;;;;;;23.80;14.27;;;;;;;;;;5014128;28;20439;-76
2022/03/05 04:23:26;;;;;;;22.37;13.03;;;;;;;;;;5011233;28;20463;-77
2022/03/05 04:25:52;;;;;;;27.53;12.83;;;;;;;;;;4996315;28;20814;-77
2022/03/05 04:28:18;;;;;;;22.57;14.00;;;;;;;;;;4999702;28;20424;-77
2022/03/05 04:30:44;;;;;;;23.77;13.07;;;;;;;;;;5009931;28;20399;-77
2022/03/05 04:33:11;;;;;;;25.87;13.60;;;;;;;;;;5015395;28;20407;-77
2022/03/05 04:35:37;;;;;;;23.43;13.00;;;;;;;;;;5015636;28;20387;-77
2022/03/05 04:38:03;;;;;;;18.90;12.20;;;;;;;;;;5015361;28;20391;-77
2022/03/05 04:40:29;;;;;;;21.97;12.77;;;;;;;;;;5015333;28;20458;-77
2022/03/05 04:42:56;;;;;;;22.07;12.60;;;;;;;;;;5014404;28;20787;-77
2022/03/05 04:45:22;;;;;;;23.53;15.03;;;;;;;;;;5015302;28;20486;-76
2022/03/05 04:47:48;;;;;;;24.50;13.40;;;;;;;;;;5016668;28;20395;-78
2022/03/05 04:50:14;;;;;;;25.30;13.37;;;;;;;;;;5017123;28;20920;-76
2022/03/05 04:52:40;;;;;;;25.57;13.40;;;;;;;;;;5015401;28;20939;-77
2022/03/05 04:55:07;;;;;;;25.37;15.23;;;;;;;;;;5015213;28;20473;-76
2022/03/05 04:57:33;;;;;;;26.50;14.73;;;;;;;;;;5015475;28;20416;-78
2022/03/05 04:59:59;;;;;;;32.00;13.87;;;;;;;;;;5013120;28;20455;-77
2022/03/05 05:02:25;;;;;;;21.53;13.57;;;;;;;;;;5002704;28;21045;-76
2022/03/05 05:04:51;;;;;;;26.57;13.67;;;;;;;;;;5014778;28;20915;-78
2022/03/05 05:07:18;;;;;;;25.47;14.20;;;;;;;;;;5007176;28;20435;-78
2022/03/05 05:09:44;;;;;;;24.90;14.60;;;;;;;;;;5014696;28;20423;-78
2022/03/05 05:12:10;;;;;;;24.53;13.70;;;;;;;;;;5017182;28;20423;-78
2022/03/05 05:14:36;;;;;;;27.57;14.63;;;;;;;;;;5015788;28;20443;-78
2022/03/05 05:17:03;;;;;;;19.50;13.07;;;;;;;;;;5015859;28;20411;-78
2022/03/05 05:19:29;;;;;;;29.63;14.53;;;;;;;;;;5015795;28;20986;-78
2022/03/05 05:21:56;;;;;;;26.00;14.13;;;;;;;;;;5017789;28;20412;-78
2022/03/05 05:24:23;;;;;;;25.40;14.63;;;;;;;;;;5016378;28;20767;-78
2022/03/05 05:26:49;;;;;;;25.57;14.73;;;;;;;;;;5016950;28;20406;-78
2022/03/05 05:29:15;;;;;;;26.97;14.67;;;;;;;;;;5015914;28;20395;-78
2022/03/05 05:31:41;;;;;;;27.70;16.90;;;;;;;;;;5016310;28;20466;-77
2022/03/05 05:34:07;;;;;;;25.10;15.40;;;;;;;;;;5014379;28;20407;-77
2022/03/05 05:36:33;;;;;;;26.47;16.30;;;;;;;;;;5016402;28;20427;-78
2022/03/05 05:38:59;;;;;;;30.50;15.90;;;;;;;;;;5015593;28;20447;-78
2022/03/05 05:41:25;;;;;;;32.47;15.97;;;;;;;;;;5016142;28;20497;-78
2022/03/05 05:43:52;;;;;;;29.40;15.40;;;;;;;;;;5018584;28;20523;-78
2022/03/05 05:46:18;;;;;;;32.10;15.43;;;;;;;;;;5015281;28;20767;-77
2022/03/05 05:48:44;;;;;;;32.37;15.70;;;;;;;;;;5014401;28;20920;-77
2022/03/05 05:51:10;;;;;;;26.77;15.47;;;;;;;;;;5016836;28;20408;-77
2022/03/05 05:53:36;;;;;;;24.23;14.67;;;;;;;;;;5026961;28;20499;-76
2022/03/05 05:56:02;;;;;;;34.70;17.30;;;;;;;;;;5015336;28;20410;-77
2022/03/05 05:58:28;;;;;;;26.10;15.00;;;;;;;;;;5015680;28;20596;-77
2022/03/05 06:00:54;;;;;;;30.27;16.83;;;;;;;;;;5015481;28;20403;-77
2022/03/05 06:03:20;;;;;;;32.83;15.80;;;;;;;;;;5015006;28;20443;-77
2022/03/05 06:05:46;;;;;;;27.53;16.17;;;;;;;;;;5016722;28;20400;-77
2022/03/05 06:08:12;;;;;;;28.50;15.33;;;;;;;;;;5016405;28;20443;-78
2022/03/05 06:10:38;;;;;;;31.47;17.97;;;;;;;;;;5015995;28;20990;-78
2022/03/05 06:13:04;;;;;;;28.50;16.43;;;;;;;;;;5014956;28;20419;-76
2022/03/05 06:15:30;;;;;;;25.57;15.33;;;;;;;;;;5015298;28;20430;-78
2022/03/05 06:17:57;;;;;;;28.30;16.33;;;;;;;;;;5014971;28;20404;-78
2022/03/05 06:20:23;;;;;;;27.20;14.90;;;;;;;;;;5013712;28;21041;-78
2022/03/05 06:22:49;;;;;;;32.77;17.00;;;;;;;;;;5014801;28;20419;-77
2022/03/05 06:25:17;;;;;;;27.13;14.60;;;;;;;;;;5014954;28;20744;-78
2022/03/05 06:27:44;;;;;;;29.20;16.27;;;;;;;;;;5014728;28;20427;-77
2022/03/05 06:30:11;;;;;;;28.40;16.10;;;;;;;;;;5014794;28;20895;-77
2022/03/05 06:32:37;;;;;;;33.27;17.50;;;;;;;;;;5014458;28;20518;-77
2022/03/05 06:35:05;;;;;;;28.97;16.77;;;;;;;;;;5014579;28;20477;-77
2022/03/05 06:37:31;;;;;;;30.30;16.07;;;;;;;;;;5014894;28;20411;-77
2022/03/05 06:39:57;;;;;;;29.00;17.67;;;;;;;;;;5037109;23;20482;-74
2022/03/05 06:42:23;;;;;;;34.80;17.70;;;;;;;;;;5032711;28;20406;-74
2022/03/05 06:44:49;;;;;;;32.17;15.80;;;;;;;;;;5033214;28;20456;-74
2022/03/05 06:47:16;;;;;;;32.90;16.53;;;;;;;;;;5032952;28;20773;-74
2022/03/05 06:49:42;;;;;;;29.37;16.47;;;;;;;;;;5032726;28;20422;-75
2022/03/05 06:52:10;;;;;;;30.40;16.63;;;;;;;;;;5031588;28;20544;-75
2022/03/05 06:54:36;;;;;;;26.60;16.00;;;;;;;;;;5032941;28;20415;-75
2022/03/05 06:57:02;;;;;;;27.63;16.03;;;;;;;;;;5033117;28;20394;-75
2022/03/05 06:59:29;;;;;;;29.73;15.30;;;;;;;;;;5032802;28;20481;-75
2022/03/05 07:01:55;;;;;;;28.83;15.73;;;;;;;;;;5032757;28;20806;-76
2022/03/05 07:04:21;;;;;;;28.37;15.87;;;;;;;;;;5033104;28;20827;-75
2022/03/05 07:06:47;;;;;;;32.40;16.30;;;;;;;;;;5036245;28;20402;-76
2022/03/05 07:09:14;;;;;;;26.67;16.10;;;;;;;;;;5036870;28;20434;-76
2022/03/05 07:11:41;;;;;;;27.23;16.90;;;;;;;;;;5036773;28;20406;-75
2022/03/05 07:14:07;;;;;;;28.70;16.10;;;;;;;;;;5036613;28;20445;-76
2022/03/05 07:16:33;;;;;;;31.97;16.60;;;;;;;;;;5036600;28;20402;-76
2022/03/05 07:18:59;;;;;;;25.97;14.93;;;;;;;;;;5036399;28;20496;-76
2022/03/05 07:21:25;;;;;;;32.00;17.87;;;;;;;;;;5036276;28;20414;-76
2022/03/05 07:23:51;;;;;;;37.20;17.37;;;;;;;;;;5036727;28;20406;-75
2022/03/05 07:26:18;;;;;;;25.37;15.37;;;;;;;;;;5038419;28;20493;-75
2022/03/05 07:28:47;;;;;;;33.60;18.97;;;;;;;;;;5047446;28;20433;-75
2022/03/05 07:31:13;;;;;;;30.00;18.03;;;;;;;;;;5037092;28;20463;-75
2022/03/05 07:33:39;;;;;;;28.37;16.53;;;;;;;;;;5036409;28;20403;-75
2022/03/05 07:36:05;;;;;;;34.97;19.23;;;;;;;;;;5036416;28;20430;-75
2022/03/05 07:38:32;;;;;;;28.70;17.20;;;;;;;;;;5036189;28;20456;-75
2022/03/05 07:40:58;;;;;;;31.73;17.23;;;;;;;;;;5036261;28;20441;-75
2022/03/05 07:43:24;;;;;;;30.40;16.90;;;;;;;;;;5036145;28;20398;-75
2022/03/05 07:45:50;;;;;;;29.60;16.83;;;;;;;;;;5036069;28;20449;-76
2022/03/05 07:48:19;;;;;;;30.90;17.30;;;;;;;;;;5036249;28;20410;-75
2022/03/05 07:50:45;;;;;;;29.80;16.97;;;;;;;;;;5035850;28;20418;-75
2022/03/05 07:53:12;;;;;;;36.70;18.13;;;;;;;;;;5035921;28;20544;-75
2022/03/05 07:55:38;;;;;;;30.43;17.27;;;;;;;;;;5035957;28;20410;-76
2022/03/05 07:58:04;;;;;;;33.80;18.50;;;;;;;;;;5036122;28;20425;-75
2022/03/05 08:00:30;;;;;;;27.53;15.20;;;;;;;;;;5035768;28;20799;-75
2022/03/05 08:02:56;;;;;;;34.90;18.47;;;;;;;;;;5036082;28;20406;-75
2022/03/05 08:05:22;;;;;;;26.50;16.53;;;;;;;;;;5036043;28;20858;-75
2022/03/05 08:07:48;;;;;;;33.73;16.80;;;;;;;;;;5035796;28;20407;-76
2022/03/05 08:10:15;;;;;;;29.17;17.97;;;;;;;;;;5034189;28;20434;-75
2022/03/05 08:12:41;;;;;;;28.80;17.70;;;;;;;;;;5035579;28;20902;-75
2022/03/05 08:15:08;;;;;;;35.10;18.00;;;;;;;;;;5035915;28;20474;-75
2022/03/05 08:17:34;;;;;;;28.20;16.43;;;;;;;;;;5035584;28;20907;-75
2022/03/05 08:20:00;;;;;;;32.30;18.10;;;;;;;;;;5035878;28;20493;-75
2022/03/05 08:22:26;;;;;;;33.20;16.47;;;;;;;;;;5035669;28;20841;-75
2022/03/05 08:24:52;;;;;;;29.37;17.47;;;;;;;;;;5035340;28;20398;-75
2022/03/05 08:27:18;;;;;;;33.97;19.60;;;;;;;;;;5035282;28;20409;-75
2022/03/05 08:29:45;;;;;;;22.53;15.83;;;;;;;;;;5035166;28;20438;-75
2022/03/05 08:32:11;;;;;;;28.90;17.10;;;;;;;;;;5035075;28;20825;-76
2022/03/05 08:34:37;;;;;;;33.13;17.57;;;;;;;;;;5035109;28;20410;-75
2022/03/05 08:37:03;;;;;;;26.30;16.77;;;;;;;;;;5033763;28;20413;-76
2022/03/05 08:39:29;;;;;;;26.73;18.60;;;;;;;;;;5034995;28;20863;-76
2022/03/05 08:41:56;;;;;;;25.77;16.13;;;;;;;;;;5035557;28;20832;-75
2022/03/05 08:44:22;;;;;;;29.50;17.30;;;;;;;;;;5035576;28;20413;-75
2022/03/05 08:46:48;;;;;;;28.13;17.87;;;;;;;;;;5034951;28;20418;-76
2022/03/05 08:49:14;;;;;;;28.30;16.80;;;;;;;;;;5035520;28;20771;-74
2022/03/05 08:51:40;;;;;;;30.93;17.97;;;;;;;;;;5035722;28;20407;-75
2022/03/05 08:54:06;;;;;;;30.37;17.47;;;;;;;;;;5033775;28;20415;-75
2022/03/05 08:56:32;;;;;;;33.03;17.80;;;;;;;;;;5034993;28;20824;-76
2022/03/05 08:58:58;;;;;;;29.13;17.10;;;;;;;;;;5033794;28;20476;-76
2022/03/05 09:01:24;;;;;;;24.87;16.40;;;;;;;;;;5035622;28;20450;-75
2022/03/05 09:03:50;;;;;;;25.70;16.40;;;;;;;;;;5033761;28;20430;-75
2022/03/05 09:06:16;;;;;;;32.17;17.20;;;;;;;;;;5033443;28;20418;-75
2022/03/05 09:08:42;;;;;;;24.33;14.57;;;;;;;;;;5045190;28;20938;-75
2022/03/05 09:11:08;;;;;;;27.23;15.70;;;;;;;;;;5043753;28;20409;-75
2022/03/05 09:13:35;;;;;;;24.17;14.90;;;;;;;;;;5054484;28;20888;-75
2022/03/05 09:16:01;;;;;;;23.73;16.10;;;;;;;;;;5038780;28;20411;-75
2022/03/05 09:18:28;;;;;;;28.60;16.53;;;;;;;;;;5034125;28;20456;-76
2022/03/05 09:20:54;;;;;;;20.83;12.70;;;;;;;;;;5034258;28;20450;-76
2022/03/05 09:23:20;;;;;;;21.67;14.03;;;;;;;;;;5034758;28;20407;-76
2022/03/05 09:25:46;;;;;;;22.30;14.77;;;;;;;;;;5046592;28;20409;-76
2022/03/05 09:28:12;;;;;;;23.17;13.33;;;;;;;;;;5033790;28;20407;-75
2022/03/05 09:30:39;;;;;;;23.47;15.70;;;;;;;;;;5033077;28;20445;-75
2022/03/05 09:33:05;;;;;;;27.73;15.00;;;;;;;;;;5034769;28;20423;-76
2022/03/05 09:35:31;;;;;;;24.00;14.63;;;;;;;;;;5033149;28;20468;-75
2022/03/05 09:37:57;;;;;;;24.00;13.90;;;;;;;;;;5034643;28;20752;-76
2022/03/05 09:40:23;;;;;;;21.63;12.73;;;;;;;;;;5033063;28;20474;-74
2022/03/05 09:42:49;;;;;;;22.27;13.67;;;;;;;;;;5042294;28;20414;-74
2022/03/05 09:45:16;;;;;;;19.57;12.53;;;;;;;;;;5054629;28;20413;-75
2022/03/05 09:47:42;;;;;;;21.63;12.13;;;;;;;;;;5038953;28;20410;-75
2022/03/05 09:50:09;;;;;;;22.10;12.57;;;;;;;;;;5033920;28;20433;-75
2022/03/05 09:52:35;;;;;;;26.07;13.10;;;;;;;;;;5034057;28;20507;-75
2022/03/05 09:55:02;;;;;;;25.23;13.33;;;;;;;;;;5034466;28;20434;-75
2022/03/05 09:57:28;;;;;;;17.43;11.97;;;;;;;;;;5033429;28;20421;-75
2022/03/05 09:59:54;;;;;;;24.50;12.13;;;;;;;;;;5033816;28;20494;-76
2022/03/05 10:02:20;;;;;;;16.53;11.00;;;;;;;;;;5034289;28;20432;-76
2022/03/05 10:04:46;;;;;;;19.00;10.80;;;;;;;;;;5033822;28;20409;-76
2022/03/05 10:07:14;;;;;;;15.03;10.53;;;;;;;;;;5032543;28;20431;-76
2022/03/05 10:09:40;;;;;;;17.30;11.27;;;;;;;;;;5033534;28;20418;-76
2022/03/05 10:12:25;;;;;;;21.80;13.30;;;;;;;;;;5033532;28;20407;-76
2022/03/05 10:15:12;;;;;;;17.53;12.27;;;;;;;;;;5034174;28;20776;-76
2022/03/05 10:17:57;;;;;;;15.63;10.97;;;;;;;;;;5033524;28;20456;-75
2022/03/05 10:20:27;;;;;;;16.50;10.10;;;;;;;;;;5033405;28;20516;-76
2022/03/05 10:23:01;;;;;;;15.43;10.73;;;;;;;;;;5033673;28;20386;-76
2022/03/05 10:25:38;;;;;;;21.50;12.27;;;;;;;;;;5031010;28;20474;-76
2022/03/05 10:28:04;;;;;;;15.50;11.70;;;;;;;;;;5053321;28;20402;-76
2022/03/05 10:30:34;;;;;;;17.63;11.77;;;;;;;;;;5049680;28;20423;-76
2022/03/05 10:33:00;;;;;;;17.20;10.70;;;;;;;;;;5044063;28;20224;-76
2022/03/05 10:35:26;;;;;;;16.43;10.03;;;;;;;;;;5053280;28;20401;-76
2022/03/05 10:37:53;;;;;;;13.47;8.70;;;;;;;;;;5053394;28;20400;-76
2022/03/05 10:40:28;;;;;;;14.63;9.90;;;;;;;;;;5052204;28;20453;-75
2022/03/05 10:42:54;;;;;;;14.33;9.17;;;;;;;;;;5051839;28;20433;-76
2022/03/05 10:45:22;;;;;;;15.53;8.60;;;;;;;;;;5053409;28;20746;-75
2022/03/05 10:47:48;;;;;;;11.40;7.97;;;;;;;;;;5053314;28;20406;-76
2022/03/05 10:50:23;;;;;;;11.80;8.17;;;;;;;;;;5034218;28;20430;-76
2022/03/05 10:52:49;;;;;;;17.03;9.50;;;;;;;;;;5033369;28;20417;-76
2022/03/05 10:55:20;;;;;;;11.20;7.30;;;;;;;;;;5033543;28;20490;-76
2022/03/05 10:57:59;;;;;;;12.00;7.85;;;;;;;;;;5032406;28;20433;-76
2022/03/05 11:00:25;;;;;;;13.77;8.50;;;;;;;;;;5032636;28;20210;-76
2022/03/05 11:02:51;;;;;;;14.83;8.73;;;;;;;;;;5052208;28;20440;-76
2022/03/05 11:05:19;;;;;;;13.10;8.00;;;;;;;;;;5052996;28;20397;-75
2022/03/05 11:07:46;;;;;;;11.00;7.77;;;;;;;;;;5053077;28;20398;-76
2022/03/05 11:10:12;;;;;;;14.00;8.60;;;;;;;;;;5052758;28;20485;-76
2022/03/05 11:12:43;;;;;;;19.07;9.60;;;;;;;;;;5053130;28;20410;-76
2022/03/05 11:15:09;;;;;;;13.40;8.80;;;;;;;;;;5053217;28;20389;-76
2022/03/05 11:17:35;;;;;;;14.83;8.03;;;;;;;;;;5053212;28;20402;-76
2022/03/05 11:20:03;;;;;;;12.50;8.93;;;;;;;;;;5052377;28;20480;-77
2022/03/05 11:22:30;;;;;;;10.60;7.67;;;;;;;;;;5051743;28;20414;-75
2022/03/05 11:24:56;;;;;;;11.70;8.57;;;;;;;;;;5051990;28;20398;-76
2022/03/05 11:27:23;;;;;;;14.17;8.70;;;;;;;;;;5052361;28;20410;-76
2022/03/05 11:29:54;;;;;;;12.63;8.60;;;;;;;;;;5053220;28;20430;-76
2022/03/05 11:32:20;;;;;;;14.00;7.90;;;;;;;;;;5054749;28;20390;-76
2022/03/05 11:34:48;;;;;;;14.57;7.73;;;;;;;;;;5054476;28;20436;-75
2022/03/05 11:37:26;;;;;;;10.77;7.57;;;;;;;;;;5052718;28;20477;-76
2022/03/05 11:39:52;;;;;;;12.77;8.00;;;;;;;;;;5052587;28;20472;-75
2022/03/05 11:42:27;;;;;;;11.23;7.03;;;;;;;;;;5053293;28;20428;-75
2022/03/05 11:44:53;;;;;;;15.10;8.27;;;;;;;;;;5052799;28;20411;-76
2022/03/05 11:47:20;;;;;;;14.50;8.07;;;;;;;;;;5052966;28;20408;-76
2022/03/05 11:49:58;;;;;;;11.73;8.33;;;;;;;;;;5053039;28;20421;-75
2022/03/05 11:52:42;;;;;;;16.60;7.03;;;;;;;;;;5055795;28;20409;-76
2022/03/05 11:55:14;;;;;;;10.83;7.17;;;;;;;;;;5056288;28;20938;-77
2022/03/05 11:57:52;;;;;;;11.40;7.30;;;;;;;;;;5056717;28;20401;-76
2022/03/05 12:00:19;;;;;;;16.13;8.30;;;;;;;;;;5056464;28;20485;-77
2022/03/05 12:02:46;;;;;;;12.80;7.90;;;;;;;;;;5056354;28;20420;-76
2022/03/05 12:05:30;;;;;;;12.90;8.50;;;;;;;;;;5056600;28;20398;-76
2022/03/05 12:07:57;;;;;;;11.10;8.50;;;;;;;;;;5056276;28;20413;-76
2022/03/05 12:10:23;;;;;;;14.43;10.13;;;;;;;;;;5056233;28;20417;-76
2022/03/05 12:12:57;;;;;;;14.10;8.10;;;;;;;;;;5056526;28;20436;-76
2022/03/05 12:15:39;;;;;;;13.53;8.40;;;;;;;;;;5056216;28;20905;-76
2022/03/05 12:18:05;;;;;;;10.70;7.50;;;;;;;;;;5055708;28;20893;-76
2022/03/05 12:20:34;;;;;;;11.40;7.57;;;;;;;;;;5055325;28;20460;-76
2022/03/05 12:23:05;;;;;;;12.53;7.90;;;;;;;;;;5055629;28;20412;-76
2022/03/05 12:25:32;;;;;;;13.90;9.30;;;;;;;;;;5055530;28;20405;-76
2022/03/05 12:27:58;;;;;;;10.63;7.63;;;;;;;;;;5055726;28;20838;-76
2022/03/05 12:30:26;;;;;;;16.10;7.97;;;;;;;;;;5055455;28;20475;-76
2022/03/05 12:32:55;;;;;;;11.80;7.40;;;;;;;;;;5056063;28;20481;-76
2022/03/05 12:35:21;;;;;;;14.53;8.00;;;;;;;;;;5044521;28;20509;-76
2022/03/05 12:37:48;;;;;;;12.77;8.07;;;;;;;;;;5049333;28;20417;-77
2022/03/05 12:40:14;;;;;;;13.03;8.30;;;;;;;;;;5045101;28;20480;-79
2022/03/05 12:42:49;;;;;;;14.53;8.20;;;;;;;;;;5035305;28;20541;-74
2022/03/05 12:45:15;;;;;;;10.47;7.30;;;;;;;;;;5035901;28;20493;-76
2022/03/05 12:47:41;;;;;;;14.93;8.00;;;;;;;;;;5035522;28;20565;-75
2022/03/05 12:50:25;;;;;;;13.07;8.10;;;;;;;;;;5035486;28;20580;-75
2022/03/05 12:52:57;;;;;;;10.37;6.40;;;;;;;;;;5036087;28;20413;-75
2022/03/05 12:55:26;;;;;;;13.03;8.73;;;;;;;;;;5053102;28;20774;-74
2022/03/05 12:57:52;;;;;;;13.70;7.97;;;;;;;;;;5040919;28;20450;-75
2022/03/05 13:00:18;;;;;;;10.90;7.27;;;;;;;;;;5036507;28;20466;-75
2022/03/05 13:02:44;;;;;;;14.67;8.07;;;;;;;;;;5035244;28;20496;-75
2022/03/05 13:05:17;;;;;;;12.40;8.07;;;;;;;;;;5035243;28;20422;-76
2022/03/05 13:07:44;;;;;;;11.57;8.40;;;;;;;;;;5033705;28;20456;-75
2022/03/05 13:10:11;;;;;;;14.17;8.43;;;;;;;;;;5035222;28;20433;-74
2022/03/05 13:12:41;;;;;;;11.20;7.00;;;;;;;;;;5035406;28;20906;-75
2022/03/05 13:15:07;;;;;;;10.30;7.10;;;;;;;;;;5037513;28;20414;-75
2022/03/05 13:17:34;;;;;;;13.47;8.83;;;;;;;;;;5040851;28;20911;-76
2022/03/05 13:20:01;;;;;;;12.00;7.37;;;;;;;;;;5052036;28;20461;-75
2022/03/05 13:22:28;;;;;;;11.27;7.63;;;;;;;;;;5050498;28;20405;-75
2022/03/05 13:24:54;;;;;;;10.47;7.77;;;;;;;;;;5033195;28;20484;-75
2022/03/05 13:27:27;;;;;;;11.73;7.70;;;;;;;;;;5034306;28;20509;-75
2022/03/05 13:30:06;;;;;;;12.67;7.10;;;;;;;;;;5047322;28;20476;-75
2022/03/05 13:32:42;;;;;;;13.73;8.70;;;;;;;;;;5051945;28;20402;-74
2022/03/05 13:35:08;;;;;;;11.97;7.40;;;;;;;;;;5034523;28;20402;-74
2022/03/05 13:37:38;;;;;;;11.73;7.90;;;;;;;;;;5040639;22;20499;-78
2022/03/05 13:40:05;;;;;;;12.63;9.50;;;;;;;;;;5013832;28;20455;-77
2022/03/05 13:42:35;;;;;;;10.77;7.73;;;;;;;;;;5014166;28;20411;-76
2022/03/05 13:45:07;;;;;;;10.70;6.93;;;;;;;;;;5018673;28;20972;-76
2022/03/05 13:47:33;;;;;;;11.80;7.20;;;;;;;;;;5033642;28;20921;-76
2022/03/05 13:49:59;;;;;;;11.80;7.47;;;;;;;;;;5034368;28;20890;-77
2022/03/05 13:52:26;;;;;;;10.03;7.53;;;;;;;;;;5029556;28;20408;-77
2022/03/05 13:54:52;;;;;;;10.40;7.20;;;;;;;;;;5023232;28;20565;-77
2022/03/05 13:57:28;;;;;;;13.53;8.00;;;;;;;;;;5028973;28;20445;-77
2022/03/05 13:59:54;;;;;;;16.47;10.63;;;;;;;;;;5018857;28;20459;-76
2022/03/05 14:02:31;;;;;;;13.23;8.90;;;;;;;;;;5014864;28;20491;-77
2022/03/05 14:04:58;;;;;;;12.37;8.30;;;;;;;;;;5014222;28;20418;-77
2022/03/05 14:07:25;;;;;;;10.13;7.77;;;;;;;;;;5015307;28;20838;-77
2022/03/05 14:09:51;;;;;;;12.63;8.10;;;;;;;;;;5014261;28;20447;-78
2022/03/05 14:12:18;;;;;;;14.10;9.00;;;;;;;;;;5012338;28;20861;-76
2022/03/05 14:14:50;;;;;;;16.03;8.27;;;;;;;;;;5013717;28;20415;-76
2022/03/05 14:17:23;;;;;;;14.67;9.40;;;;;;;;;;5013577;28;20427;-77
2022/03/05 14:19:49;;;;;;;13.00;8.37;;;;;;;;;;5013580;28;20466;-77
2022/03/05 14:22:21;;;;;;;11.30;8.33;;;;;;;;;;5013561;28;20892;-77